sensor_id;sensor_type;location;lat;lon;timestamp;P1;durP1;ratioP1;P2;durP2;ratioP2
70675;SDS011;59069;52.242;20.900;2022-10-26T00:01:29;24.70;;;13.73;;
70675;SDS011;59069;52.242;20.900;2022-10-26T00:03:48;28.00;;;12.85;;
70675;SDS011;59069;52.242;20.900;2022-10-26T00:08:40;26.83;;;13.45;;
70675;SDS011;59069;52.242;20.900;2022-10-26T00:11:06;24.55;;;12.88;;
70675;SDS011;59069;52.242;20.900;2022-10-26T00:13:32;21.67;;;12.60;;
70675;SDS011;59069;52.242;20.900;2022-10-26T00:15:58;26.00;;;12.53;;
70675;SDS011;59069;52.242;20.900;2022-10-26T00:18:24;24.08;;;12.90;;
70675;SDS011;59069;52.242;20.900;2022-10-26T00:20:49;24.83;;;13.03;;
70675;SDS011;59069;52.242;20.900;2022-10-26T00:23:15;24.45;;;12.82;;
70675;SDS011;59069;52.242;20.900;2022-10-26T00:25:41;22.73;;;12.48;;
70675;SDS011;59069;52.242;20.900;2022-10-26T00:28:06;26.83;;;13.50;;
70675;SDS011;59069;52.242;20.900;2022-10-26T00:30:32;23.00;;;12.77;;
70675;SDS011;59069;52.242;20.900;2022-10-26T00:32:57;26.17;;;12.83;;
70675;SDS011;59069;52.242;20.900;2022-10-26T00:35:22;26.17;;;13.30;;
70675;SDS011;59069;52.242;20.900;2022-10-26T00:37:52;24.37;;;12.53;;
70675;SDS011;59069;52.242;20.900;2022-10-26T00:40:19;23.10;;;12.75;;
70675;SDS011;59069;52.242;20.900;2022-10-26T00:42:44;23.40;;;11.80;;
70675;SDS011;59069;52.242;20.900;2022-10-26T00:45:19;26.23;;;12.80;;
70675;SDS011;59069;52.242;20.900;2022-10-26T00:47:50;23.20;;;12.05;;
70675;SDS011;59069;52.242;20.900;2022-10-26T00:50:55;26.52;;;13.15;;
70675;SDS011;59069;52.242;20.900;2022-10-26T00:53:15;25.33;;;12.80;;
70675;SDS011;59069;52.242;20.900;2022-10-26T00:55:43;24.77;;;13.30;;
70675;SDS011;59069;52.242;20.900;2022-10-26T00:58:11;25.77;;;13.43;;
70675;SDS011;59069;52.242;20.900;2022-10-26T01:00:38;24.60;;;13.20;;
70675;SDS011;59069;52.242;20.900;2022-10-26T01:03:06;27.48;;;14.10;;
70675;SDS011;59069;52.242;20.900;2022-10-26T01:05:33;25.90;;;12.77;;
70675;SDS011;59069;52.242;20.900;2022-10-26T01:08:01;23.77;;;13.02;;
70675;SDS011;59069;52.242;20.900;2022-10-26T01:10:27;25.05;;;13.80;;
70675;SDS011;59069;52.242;20.900;2022-10-26T01:12:54;25.45;;;13.48;;
70675;SDS011;59069;52.242;20.900;2022-10-26T01:15:21;24.65;;;12.77;;
70675;SDS011;59069;52.242;20.900;2022-10-26T01:18:00;24.53;;;12.13;;
70675;SDS011;59069;52.242;20.900;2022-10-26T01:29:06;20.75;;;11.95;;
70675;SDS011;59069;52.242;20.900;2022-10-26T01:31:52;23.53;;;12.30;;
70675;SDS011;59069;52.242;20.900;2022-10-26T01:34:48;23.40;;;11.93;;
70675;SDS011;59069;52.242;20.900;2022-10-26T01:37:31;25.33;;;12.35;;
70675;SDS011;59069;52.242;20.900;2022-10-26T01:43:08;22.33;;;12.95;;
70675;SDS011;59069;52.242;20.900;2022-10-26T01:45:39;23.80;;;12.47;;
70675;SDS011;59069;52.242;20.900;2022-10-26T01:48:08;24.77;;;13.27;;
70675;SDS011;59069;52.242;20.900;2022-10-26T01:50:36;24.45;;;12.77;;
70675;SDS011;59069;52.242;20.900;2022-10-26T01:53:03;25.30;;;13.18;;
70675;SDS011;59069;52.242;20.900;2022-10-26T02:01:13;26.55;;;12.75;;
70675;SDS011;59069;52.242;20.900;2022-10-26T02:08:49;24.08;;;14.02;;
70675;SDS011;59069;52.242;20.900;2022-10-26T02:19:09;31.47;;;16.33;;
70675;SDS011;59069;52.242;20.900;2022-10-26T02:22:08;28.15;;;14.10;;
70675;SDS011;59069;52.242;20.900;2022-10-26T02:24:46;28.73;;;15.13;;
70675;SDS011;59069;52.242;20.900;2022-10-26T02:27:15;28.23;;;14.48;;
70675;SDS011;59069;52.242;20.900;2022-10-26T02:29:45;27.83;;;14.57;;
70675;SDS011;59069;52.242;20.900;2022-10-26T02:32:11;28.20;;;15.13;;
70675;SDS011;59069;52.242;20.900;2022-10-26T02:34:38;30.70;;;14.75;;
70675;SDS011;59069;52.242;20.900;2022-10-26T02:37:07;28.55;;;15.50;;
70675;SDS011;59069;52.242;20.900;2022-10-26T02:39:33;26.98;;;13.85;;
70675;SDS011;59069;52.242;20.900;2022-10-26T02:42:03;27.38;;;13.55;;
70675;SDS011;59069;52.242;20.900;2022-10-26T02:44:33;30.03;;;14.13;;
70675;SDS011;59069;52.242;20.900;2022-10-26T02:47:04;28.88;;;14.07;;
70675;SDS011;59069;52.242;20.900;2022-10-26T02:49:29;27.13;;;13.80;;
70675;SDS011;59069;52.242;20.900;2022-10-26T02:52:00;25.77;;;14.18;;
70675;SDS011;59069;52.242;20.900;2022-10-26T02:57:19;27.13;;;14.27;;
70675;SDS011;59069;52.242;20.900;2022-10-26T02:59:50;24.77;;;13.55;;
70675;SDS011;59069;52.242;20.900;2022-10-26T03:02:18;26.65;;;13.93;;
70675;SDS011;59069;52.242;20.900;2022-10-26T03:04:44;28.92;;;14.80;;
70675;SDS011;59069;52.242;20.900;2022-10-26T03:07:11;31.23;;;14.15;;
70675;SDS011;59069;52.242;20.900;2022-10-26T03:09:36;28.23;;;15.10;;
70675;SDS011;59069;52.242;20.900;2022-10-26T03:12:02;30.40;;;15.33;;
70675;SDS011;59069;52.242;20.900;2022-10-26T03:14:27;28.42;;;15.32;;
70675;SDS011;59069;52.242;20.900;2022-10-26T03:16:53;29.07;;;14.13;;
70675;SDS011;59069;52.242;20.900;2022-10-26T03:19:18;34.53;;;14.87;;
70675;SDS011;59069;52.242;20.900;2022-10-26T03:21:44;29.47;;;14.27;;
70675;SDS011;59069;52.242;20.900;2022-10-26T03:24:09;30.53;;;14.10;;
70675;SDS011;59069;52.242;20.900;2022-10-26T03:26:34;29.33;;;15.27;;
70675;SDS011;59069;52.242;20.900;2022-10-26T03:29:00;30.87;;;15.50;;
70675;SDS011;59069;52.242;20.900;2022-10-26T03:31:25;28.87;;;14.93;;
70675;SDS011;59069;52.242;20.900;2022-10-26T03:33:50;32.73;;;15.30;;
70675;SDS011;59069;52.242;20.900;2022-10-26T03:36:16;29.33;;;14.57;;
70675;SDS011;59069;52.242;20.900;2022-10-26T03:38:42;27.35;;;15.55;;
70675;SDS011;59069;52.242;20.900;2022-10-26T03:41:07;30.07;;;15.20;;
70675;SDS011;59069;52.242;20.900;2022-10-26T03:43:32;30.03;;;14.13;;
70675;SDS011;59069;52.242;20.900;2022-10-26T03:45:59;30.30;;;15.25;;
70675;SDS011;59069;52.242;20.900;2022-10-26T03:48:24;27.70;;;14.27;;
70675;SDS011;59069;52.242;20.900;2022-10-26T03:50:49;31.57;;;15.13;;
70675;SDS011;59069;52.242;20.900;2022-10-26T03:53:15;31.70;;;15.32;;
70675;SDS011;59069;52.242;20.900;2022-10-26T03:55:43;29.70;;;14.63;;
70675;SDS011;59069;52.242;20.900;2022-10-26T03:58:09;30.40;;;14.52;;
70675;SDS011;59069;52.242;20.900;2022-10-26T04:00:34;32.73;;;15.10;;
70675;SDS011;59069;52.242;20.900;2022-10-26T04:03:00;31.97;;;14.47;;
70675;SDS011;59069;52.242;20.900;2022-10-26T04:05:26;31.03;;;16.33;;
70675;SDS011;59069;52.242;20.900;2022-10-26T04:07:53;33.35;;;15.65;;
70675;SDS011;59069;52.242;20.900;2022-10-26T04:10:19;30.08;;;15.52;;
70675;SDS011;59069;52.242;20.900;2022-10-26T04:12:45;28.23;;;14.20;;
70675;SDS011;59069;52.242;20.900;2022-10-26T04:15:10;30.33;;;13.20;;
70675;SDS011;59069;52.242;20.900;2022-10-26T04:17:36;29.17;;;14.77;;
70675;SDS011;59069;52.242;20.900;2022-10-26T04:20:01;27.08;;;14.60;;
70675;SDS011;59069;52.242;20.900;2022-10-26T04:22:27;30.57;;;14.30;;
70675;SDS011;59069;52.242;20.900;2022-10-26T04:24:52;27.13;;;13.43;;
70675;SDS011;59069;52.242;20.900;2022-10-26T04:27:18;30.10;;;15.10;;
70675;SDS011;59069;52.242;20.900;2022-10-26T04:29:43;28.13;;;13.80;;
70675;SDS011;59069;52.242;20.900;2022-10-26T04:32:08;32.13;;;14.20;;
70675;SDS011;59069;52.242;20.900;2022-10-26T04:34:34;33.40;;;15.47;;
70675;SDS011;59069;52.242;20.900;2022-10-26T04:36:59;27.53;;;13.57;;
70675;SDS011;59069;52.242;20.900;2022-10-26T04:39:25;27.73;;;14.20;;
70675;SDS011;59069;52.242;20.900;2022-10-26T04:41:50;31.97;;;15.47;;
70675;SDS011;59069;52.242;20.900;2022-10-26T04:44:15;33.43;;;15.90;;
70675;SDS011;59069;52.242;20.900;2022-10-26T04:46:41;30.00;;;15.93;;
70675;SDS011;59069;52.242;20.900;2022-10-26T04:49:06;28.67;;;14.90;;
70675;SDS011;59069;52.242;20.900;2022-10-26T04:51:31;33.07;;;15.10;;
70675;SDS011;59069;52.242;20.900;2022-10-26T04:53:57;33.40;;;14.83;;
70675;SDS011;59069;52.242;20.900;2022-10-26T04:56:22;31.93;;;14.50;;
70675;SDS011;59069;52.242;20.900;2022-10-26T04:58:48;31.47;;;15.00;;
70675;SDS011;59069;52.242;20.900;2022-10-26T05:01:13;35.00;;;14.57;;
70675;SDS011;59069;52.242;20.900;2022-10-26T05:03:38;34.33;;;14.57;;
70675;SDS011;59069;52.242;20.900;2022-10-26T05:06:04;32.53;;;15.77;;
70675;SDS011;59069;52.242;20.900;2022-10-26T05:08:29;34.43;;;15.20;;
70675;SDS011;59069;52.242;20.900;2022-10-26T05:10:55;28.93;;;14.97;;
70675;SDS011;59069;52.242;20.900;2022-10-26T05:13:20;32.83;;;15.30;;
70675;SDS011;59069;52.242;20.900;2022-10-26T05:15:46;35.33;;;15.43;;
70675;SDS011;59069;52.242;20.900;2022-10-26T05:18:11;30.07;;;14.30;;
70675;SDS011;59069;52.242;20.900;2022-10-26T05:20:37;33.33;;;14.77;;
70675;SDS011;59069;52.242;20.900;2022-10-26T05:23:03;33.38;;;14.07;;
70675;SDS011;59069;52.242;20.900;2022-10-26T05:25:31;34.83;;;14.63;;
70675;SDS011;59069;52.242;20.900;2022-10-26T05:28:00;28.05;;;13.15;;
70675;SDS011;59069;52.242;20.900;2022-10-26T05:30:27;31.57;;;13.33;;
70675;SDS011;59069;52.242;20.900;2022-10-26T05:32:56;29.63;;;13.52;;
70675;SDS011;59069;52.242;20.900;2022-10-26T05:35:23;35.33;;;13.10;;
70675;SDS011;59069;52.242;20.900;2022-10-26T05:37:50;30.77;;;13.30;;
70675;SDS011;59069;52.242;20.900;2022-10-26T05:40:16;28.77;;;13.40;;
70675;SDS011;59069;52.242;20.900;2022-10-26T05:42:41;29.37;;;13.17;;
70675;SDS011;59069;52.242;20.900;2022-10-26T05:45:07;35.10;;;14.00;;
70675;SDS011;59069;52.242;20.900;2022-10-26T05:47:37;30.07;;;13.40;;
70675;SDS011;59069;52.242;20.900;2022-10-26T05:50:03;32.75;;;13.93;;
70675;SDS011;59069;52.242;20.900;2022-10-26T05:52:29;27.48;;;13.32;;
70675;SDS011;59069;52.242;20.900;2022-10-26T05:54:55;33.43;;;14.57;;
70675;SDS011;59069;52.242;20.900;2022-10-26T05:57:20;31.83;;;14.07;;
70675;SDS011;59069;52.242;20.900;2022-10-26T05:59:46;31.17;;;12.90;;
70675;SDS011;59069;52.242;20.900;2022-10-26T06:04:50;29.67;;;13.23;;
70675;SDS011;59069;52.242;20.900;2022-10-26T06:07:18;27.95;;;13.55;;
70675;SDS011;59069;52.242;20.900;2022-10-26T06:09:45;29.98;;;13.00;;
70675;SDS011;59069;52.242;20.900;2022-10-26T06:12:11;27.42;;;13.85;;
70675;SDS011;59069;52.242;20.900;2022-10-26T06:14:37;25.85;;;12.20;;
70675;SDS011;59069;52.242;20.900;2022-10-26T06:22:22;25.40;;;12.07;;
70675;SDS011;59069;52.242;20.900;2022-10-26T06:30:52;23.73;;;10.60;;
70675;SDS011;59069;52.242;20.900;2022-10-26T06:33:18;26.42;;;10.88;;
70675;SDS011;59069;52.242;20.900;2022-10-26T06:35:56;25.13;;;10.30;;
70675;SDS011;59069;52.242;20.900;2022-10-26T06:38:28;25.48;;;11.00;;
70675;SDS011;59069;52.242;20.900;2022-10-26T06:40:58;25.60;;;11.38;;
70675;SDS011;59069;52.242;20.900;2022-10-26T06:45:55;25.40;;;11.37;;
70675;SDS011;59069;52.242;20.900;2022-10-26T06:48:34;28.52;;;12.15;;
70675;SDS011;59069;52.242;20.900;2022-10-26T06:51:12;26.98;;;12.05;;
70675;SDS011;59069;52.242;20.900;2022-10-26T06:53:46;30.65;;;13.55;;
70675;SDS011;59069;52.242;20.900;2022-10-26T06:56:19;35.03;;;13.25;;
70675;SDS011;59069;52.242;20.900;2022-10-26T06:58:45;29.97;;;13.23;;
70675;SDS011;59069;52.242;20.900;2022-10-26T07:01:13;31.13;;;14.18;;
70675;SDS011;59069;52.242;20.900;2022-10-26T07:03:39;34.60;;;14.70;;
70675;SDS011;59069;52.242;20.900;2022-10-26T07:06:05;29.30;;;14.77;;
70675;SDS011;59069;52.242;20.900;2022-10-26T07:08:30;27.05;;;13.07;;
70675;SDS011;59069;52.242;20.900;2022-10-26T07:10:56;28.13;;;12.77;;
70675;SDS011;59069;52.242;20.900;2022-10-26T07:13:21;28.88;;;12.27;;
70675;SDS011;59069;52.242;20.900;2022-10-26T07:15:47;29.83;;;12.13;;
70675;SDS011;59069;52.242;20.900;2022-10-26T07:18:12;30.40;;;12.57;;
70675;SDS011;59069;52.242;20.900;2022-10-26T07:20:39;29.43;;;13.00;;
70675;SDS011;59069;52.242;20.900;2022-10-26T07:23:05;30.27;;;12.23;;
70675;SDS011;59069;52.242;20.900;2022-10-26T07:25:32;31.38;;;12.75;;
70675;SDS011;59069;52.242;20.900;2022-10-26T07:27:59;27.05;;;11.70;;
70675;SDS011;59069;52.242;20.900;2022-10-26T07:30:26;29.85;;;13.02;;
70675;SDS011;59069;52.242;20.900;2022-10-26T07:33:02;31.73;;;12.30;;
70675;SDS011;59069;52.242;20.900;2022-10-26T07:35:33;26.15;;;11.48;;
70675;SDS011;59069;52.242;20.900;2022-10-26T07:37:59;28.58;;;12.13;;
70675;SDS011;59069;52.242;20.900;2022-10-26T07:40:25;25.23;;;11.45;;
70675;SDS011;59069;52.242;20.900;2022-10-26T07:42:51;23.77;;;10.90;;
70675;SDS011;59069;52.242;20.900;2022-10-26T07:45:16;25.88;;;11.73;;
70675;SDS011;59069;52.242;20.900;2022-10-26T07:47:42;24.67;;;10.67;;
70675;SDS011;59069;52.242;20.900;2022-10-26T07:50:08;25.08;;;10.85;;
70675;SDS011;59069;52.242;20.900;2022-10-26T07:52:35;23.25;;;9.48;;
70675;SDS011;59069;52.242;20.900;2022-10-26T07:55:02;22.07;;;10.17;;
70675;SDS011;59069;52.242;20.900;2022-10-26T07:57:29;26.63;;;10.35;;
70675;SDS011;59069;52.242;20.900;2022-10-26T07:59:54;20.97;;;10.10;;
70675;SDS011;59069;52.242;20.900;2022-10-26T08:02:20;20.08;;;8.98;;
70675;SDS011;59069;52.242;20.900;2022-10-26T08:04:45;23.50;;;9.70;;
70675;SDS011;59069;52.242;20.900;2022-10-26T08:07:10;23.60;;;10.57;;
70675;SDS011;59069;52.242;20.900;2022-10-26T08:09:36;23.03;;;10.27;;
70675;SDS011;59069;52.242;20.900;2022-10-26T08:12:01;24.13;;;10.98;;
70675;SDS011;59069;52.242;20.900;2022-10-26T08:14:27;19.83;;;10.03;;
70675;SDS011;59069;52.242;20.900;2022-10-26T08:16:52;19.93;;;9.33;;
70675;SDS011;59069;52.242;20.900;2022-10-26T08:19:17;22.43;;;9.43;;
70675;SDS011;59069;52.242;20.900;2022-10-26T08:21:43;21.13;;;10.15;;
70675;SDS011;59069;52.242;20.900;2022-10-26T08:24:08;24.27;;;10.60;;
70675;SDS011;59069;52.242;20.900;2022-10-26T08:26:34;21.43;;;9.60;;
70675;SDS011;59069;52.242;20.900;2022-10-26T08:28:59;25.97;;;11.27;;
70675;SDS011;59069;52.242;20.900;2022-10-26T08:31:25;25.33;;;11.40;;
70675;SDS011;59069;52.242;20.900;2022-10-26T08:33:50;24.27;;;11.17;;
70675;SDS011;59069;52.242;20.900;2022-10-26T08:36:16;24.40;;;11.43;;
70675;SDS011;59069;52.242;20.900;2022-10-26T08:38:47;24.35;;;10.95;;
70675;SDS011;59069;52.242;20.900;2022-10-26T08:41:13;23.47;;;10.13;;
70675;SDS011;59069;52.242;20.900;2022-10-26T08:43:42;23.65;;;10.45;;
70675;SDS011;59069;52.242;20.900;2022-10-26T08:46:33;26.92;;;11.23;;
70675;SDS011;59069;52.242;20.900;2022-10-26T08:49:16;22.98;;;10.68;;
70675;SDS011;59069;52.242;20.900;2022-10-26T08:51:46;23.73;;;10.07;;
70675;SDS011;59069;52.242;20.900;2022-10-26T08:56:57;22.88;;;10.73;;
70675;SDS011;59069;52.242;20.900;2022-10-26T08:59:36;24.73;;;11.07;;
70675;SDS011;59069;52.242;20.900;2022-10-26T09:02:11;26.27;;;11.50;;
70675;SDS011;59069;52.242;20.900;2022-10-26T09:04:38;24.83;;;10.37;;
70675;SDS011;59069;52.242;20.900;2022-10-26T09:10:15;26.38;;;10.70;;
70675;SDS011;59069;52.242;20.900;2022-10-26T09:15:51;23.58;;;10.82;;
70675;SDS011;59069;52.242;20.900;2022-10-26T09:18:33;25.35;;;10.65;;
70675;SDS011;59069;52.242;20.900;2022-10-26T09:23:53;22.98;;;10.18;;
70675;SDS011;59069;52.242;20.900;2022-10-26T09:29:11;22.65;;;10.07;;
70675;SDS011;59069;52.242;20.900;2022-10-26T09:31:39;21.55;;;10.60;;
70675;SDS011;59069;52.242;20.900;2022-10-26T09:34:19;23.15;;;11.07;;
70675;SDS011;59069;52.242;20.900;2022-10-26T09:36:52;23.55;;;9.43;;
70675;SDS011;59069;52.242;20.900;2022-10-26T09:42:11;20.83;;;9.70;;
70675;SDS011;59069;52.242;20.900;2022-10-26T09:47:31;20.98;;;9.93;;
70675;SDS011;59069;52.242;20.900;2022-10-26T09:52:33;23.60;;;9.90;;
70675;SDS011;59069;52.242;20.900;2022-10-26T09:54:59;23.70;;;10.70;;
70675;SDS011;59069;52.242;20.900;2022-10-26T09:57:24;24.43;;;10.47;;
70675;SDS011;59069;52.242;20.900;2022-10-26T09:59:50;23.90;;;9.77;;
70675;SDS011;59069;52.242;20.900;2022-10-26T10:05:01;25.95;;;10.48;;
70675;SDS011;59069;52.242;20.900;2022-10-26T10:07:27;21.63;;;10.32;;
70675;SDS011;59069;52.242;20.900;2022-10-26T10:10:06;20.93;;;10.20;;
70675;SDS011;59069;52.242;20.900;2022-10-26T10:12:40;21.30;;;10.05;;
70675;SDS011;59069;52.242;20.900;2022-10-26T10:15:15;24.87;;;10.50;;
70675;SDS011;59069;52.242;20.900;2022-10-26T10:17:46;24.17;;;10.13;;
70675;SDS011;59069;52.242;20.900;2022-10-26T10:20:16;22.73;;;10.45;;
70675;SDS011;59069;52.242;20.900;2022-10-26T10:22:56;26.58;;;10.48;;
70675;SDS011;59069;52.242;20.900;2022-10-26T10:25:33;22.73;;;10.50;;
70675;SDS011;59069;52.242;20.900;2022-10-26T10:28:01;23.10;;;11.38;;
70675;SDS011;59069;52.242;20.900;2022-10-26T10:30:29;24.60;;;11.68;;
70675;SDS011;59069;52.242;20.900;2022-10-26T10:33:56;26.27;;;12.30;;
70675;SDS011;59069;52.242;20.900;2022-10-26T10:35:58;25.38;;;12.10;;
70675;SDS011;59069;52.242;20.900;2022-10-26T10:38:25;27.50;;;12.13;;
70675;SDS011;59069;52.242;20.900;2022-10-26T10:40:51;23.67;;;11.75;;
70675;SDS011;59069;52.242;20.900;2022-10-26T10:43:20;28.40;;;14.25;;
70675;SDS011;59069;52.242;20.900;2022-10-26T10:45:50;29.20;;;13.07;;
70675;SDS011;59069;52.242;20.900;2022-10-26T10:48:18;28.27;;;13.57;;
70675;SDS011;59069;52.242;20.900;2022-10-26T10:50:58;25.17;;;12.57;;
70675;SDS011;59069;52.242;20.900;2022-10-26T10:58:45;24.97;;;11.43;;
70675;SDS011;59069;52.242;20.900;2022-10-26T11:01:37;27.98;;;13.07;;
70675;SDS011;59069;52.242;20.900;2022-10-26T11:06:49;27.13;;;12.75;;
70675;SDS011;59069;52.242;20.900;2022-10-26T11:09:18;31.13;;;12.90;;
70675;SDS011;59069;52.242;20.900;2022-10-26T11:11:53;25.73;;;12.20;;
70675;SDS011;59069;52.242;20.900;2022-10-26T11:14:24;26.70;;;11.80;;
70675;SDS011;59069;52.242;20.900;2022-10-26T11:16:55;21.38;;;10.45;;
70675;SDS011;59069;52.242;20.900;2022-10-26T11:19:39;23.35;;;10.32;;
70675;SDS011;59069;52.242;20.900;2022-10-26T11:22:11;21.52;;;10.93;;
70675;SDS011;59069;52.242;20.900;2022-10-26T11:24:44;20.63;;;9.23;;
70675;SDS011;59069;52.242;20.900;2022-10-26T11:27:24;23.85;;;10.88;;
70675;SDS011;59069;52.242;20.900;2022-10-26T11:30:18;21.35;;;9.73;;
70675;SDS011;59069;52.242;20.900;2022-10-26T11:45:35;26.00;;;12.47;;
70675;SDS011;59069;52.242;20.900;2022-10-26T11:50:35;24.17;;;10.77;;
70675;SDS011;59069;52.242;20.900;2022-10-26T11:53:15;21.33;;;10.55;;
70675;SDS011;59069;52.242;20.900;2022-10-26T11:55:46;21.42;;;9.52;;
70675;SDS011;59069;52.242;20.900;2022-10-26T11:58:16;19.30;;;8.80;;
70675;SDS011;59069;52.242;20.900;2022-10-26T12:00:44;18.13;;;8.63;;
70675;SDS011;59069;52.242;20.900;2022-10-26T12:03:19;20.15;;;8.55;;
70675;SDS011;59069;52.242;20.900;2022-10-26T12:05:51;22.23;;;9.40;;
70675;SDS011;59069;52.242;20.900;2022-10-26T12:08:35;21.52;;;9.55;;
70675;SDS011;59069;52.242;20.900;2022-10-26T12:13:44;22.10;;;9.85;;
70675;SDS011;59069;52.242;20.900;2022-10-26T12:16:34;19.47;;;9.43;;
70675;SDS011;59069;52.242;20.900;2022-10-26T12:19:25;20.83;;;10.07;;
70675;SDS011;59069;52.242;20.900;2022-10-26T12:22:08;18.65;;;9.82;;
70675;SDS011;59069;52.242;20.900;2022-10-26T12:24:42;23.00;;;10.23;;
70675;SDS011;59069;52.242;20.900;2022-10-26T12:30:14;21.63;;;9.93;;
70675;SDS011;59069;52.242;20.900;2022-10-26T12:32:50;18.75;;;8.77;;
70675;SDS011;59069;52.242;20.900;2022-10-26T12:37:55;21.13;;;9.18;;
70675;SDS011;59069;52.242;20.900;2022-10-26T12:45:43;22.90;;;9.32;;
70675;SDS011;59069;52.242;20.900;2022-10-26T12:48:23;21.73;;;8.65;;
70675;SDS011;59069;52.242;20.900;2022-10-26T12:53:49;21.48;;;8.75;;
70675;SDS011;59069;52.242;20.900;2022-10-26T12:56:34;24.03;;;10.20;;
70675;SDS011;59069;52.242;20.900;2022-10-26T13:04:42;21.35;;;9.95;;
70675;SDS011;59069;52.242;20.900;2022-10-26T13:07:39;24.13;;;9.30;;
70675;SDS011;59069;52.242;20.900;2022-10-26T13:10:16;22.97;;;9.77;;
70675;SDS011;59069;52.242;20.900;2022-10-26T13:12:55;19.63;;;8.98;;
70675;SDS011;59069;52.242;20.900;2022-10-26T13:15:23;19.75;;;8.98;;
70675;SDS011;59069;52.242;20.900;2022-10-26T13:18:13;17.73;;;8.40;;
70675;SDS011;59069;52.242;20.900;2022-10-26T13:23:41;20.67;;;8.50;;
70675;SDS011;59069;52.242;20.900;2022-10-26T13:26:24;17.08;;;7.78;;
70675;SDS011;59069;52.242;20.900;2022-10-26T13:28:52;17.40;;;7.43;;
70675;SDS011;59069;52.242;20.900;2022-10-26T13:33:59;18.05;;;7.80;;
70675;SDS011;59069;52.242;20.900;2022-10-26T13:36:30;20.17;;;8.57;;
70675;SDS011;59069;52.242;20.900;2022-10-26T13:39:02;22.98;;;7.95;;
70675;SDS011;59069;52.242;20.900;2022-10-26T13:41:43;20.10;;;7.75;;
70675;SDS011;59069;52.242;20.900;2022-10-26T13:44:13;18.73;;;8.10;;
70675;SDS011;59069;52.242;20.900;2022-10-26T13:46:46;22.95;;;8.75;;
70675;SDS011;59069;52.242;20.900;2022-10-26T13:49:22;17.10;;;8.10;;
70675;SDS011;59069;52.242;20.900;2022-10-26T13:51:58;20.05;;;8.68;;
70675;SDS011;59069;52.242;20.900;2022-10-26T13:57:10;16.77;;;7.77;;
70675;SDS011;59069;52.242;20.900;2022-10-26T13:59:37;16.85;;;7.63;;
70675;SDS011;59069;52.242;20.900;2022-10-26T14:02:17;17.70;;;8.43;;
70675;SDS011;59069;52.242;20.900;2022-10-26T14:04:57;17.90;;;8.30;;
70675;SDS011;59069;52.242;20.900;2022-10-26T14:07:25;18.73;;;8.35;;
70675;SDS011;59069;52.242;20.900;2022-10-26T14:10:00;18.10;;;8.20;;
70675;SDS011;59069;52.242;20.900;2022-10-26T14:12:26;21.57;;;8.40;;
70675;SDS011;59069;52.242;20.900;2022-10-26T14:15:00;16.77;;;6.85;;
70675;SDS011;59069;52.242;20.900;2022-10-26T14:17:30;16.88;;;7.60;;
70675;SDS011;59069;52.242;20.900;2022-10-26T14:19:56;16.77;;;7.70;;
70675;SDS011;59069;52.242;20.900;2022-10-26T14:22:22;15.77;;;7.77;;
70675;SDS011;59069;52.242;20.900;2022-10-26T14:24:55;17.13;;;8.20;;
70675;SDS011;59069;52.242;20.900;2022-10-26T14:27:24;18.57;;;8.10;;
70675;SDS011;59069;52.242;20.900;2022-10-26T14:29:52;19.10;;;7.63;;
70675;SDS011;59069;52.242;20.900;2022-10-26T14:32:26;17.98;;;8.10;;
70675;SDS011;59069;52.242;20.900;2022-10-26T14:34:52;22.63;;;7.78;;
70675;SDS011;59069;52.242;20.900;2022-10-26T14:37:41;17.33;;;7.68;;
70675;SDS011;59069;52.242;20.900;2022-10-26T14:40:17;18.00;;;7.73;;
70675;SDS011;59069;52.242;20.900;2022-10-26T14:42:46;16.42;;;7.22;;
70675;SDS011;59069;52.242;20.900;2022-10-26T14:45:35;18.33;;;7.82;;
70675;SDS011;59069;52.242;20.900;2022-10-26T14:48:04;16.25;;;7.47;;
70675;SDS011;59069;52.242;20.900;2022-10-26T14:50:30;21.85;;;7.30;;
70675;SDS011;59069;52.242;20.900;2022-10-26T14:53:14;16.33;;;8.63;;
70675;SDS011;59069;52.242;20.900;2022-10-26T14:55:47;17.60;;;7.97;;
70675;SDS011;59069;52.242;20.900;2022-10-26T14:58:16;16.50;;;7.93;;
70675;SDS011;59069;52.242;20.900;2022-10-26T15:00:45;16.25;;;8.07;;
70675;SDS011;59069;52.242;20.900;2022-10-26T15:03:15;17.83;;;8.05;;
70675;SDS011;59069;52.242;20.900;2022-10-26T15:05:41;22.13;;;7.73;;
70675;SDS011;59069;52.242;20.900;2022-10-26T15:08:39;20.98;;;7.93;;
70675;SDS011;59069;52.242;20.900;2022-10-26T15:11:06;18.30;;;8.65;;
70675;SDS011;59069;52.242;20.900;2022-10-26T15:13:32;22.45;;;8.88;;
70675;SDS011;59069;52.242;20.900;2022-10-26T15:16:06;15.53;;;8.17;;
70675;SDS011;59069;52.242;20.900;2022-10-26T15:18:33;14.77;;;7.28;;
70675;SDS011;59069;52.242;20.900;2022-10-26T15:21:01;19.67;;;8.82;;
70675;SDS011;59069;52.242;20.900;2022-10-26T15:23:26;19.03;;;7.57;;
70675;SDS011;59069;52.242;20.900;2022-10-26T15:25:55;18.65;;;8.65;;
70675;SDS011;59069;52.242;20.900;2022-10-26T15:28:24;19.33;;;9.13;;
70675;SDS011;59069;52.242;20.900;2022-10-26T15:33:24;19.80;;;8.50;;
70675;SDS011;59069;52.242;20.900;2022-10-26T15:35:49;16.85;;;8.05;;
70675;SDS011;59069;52.242;20.900;2022-10-26T15:38:14;20.57;;;8.33;;
70675;SDS011;59069;52.242;20.900;2022-10-26T15:40:43;18.53;;;8.90;;
70675;SDS011;59069;52.242;20.900;2022-10-26T15:43:09;19.15;;;8.98;;
70675;SDS011;59069;52.242;20.900;2022-10-26T15:45:36;19.02;;;9.10;;
70675;SDS011;59069;52.242;20.900;2022-10-26T15:48:17;21.53;;;8.90;;
70675;SDS011;59069;52.242;20.900;2022-10-26T15:50:46;24.58;;;10.95;;
70675;SDS011;59069;52.242;20.900;2022-10-26T15:53:15;26.52;;;13.20;;
70675;SDS011;59069;52.242;20.900;2022-10-26T15:55:43;30.30;;;14.77;;
70675;SDS011;59069;52.242;20.900;2022-10-26T15:58:09;28.23;;;13.35;;
70675;SDS011;59069;52.242;20.900;2022-10-26T16:00:35;26.03;;;13.00;;
70675;SDS011;59069;52.242;20.900;2022-10-26T16:03:01;26.85;;;12.30;;
70675;SDS011;59069;52.242;20.900;2022-10-26T16:05:27;23.13;;;11.85;;
70675;SDS011;59069;52.242;20.900;2022-10-26T16:07:52;23.13;;;10.97;;
70675;SDS011;59069;52.242;20.900;2022-10-26T16:10:21;24.30;;;10.70;;
70675;SDS011;59069;52.242;20.900;2022-10-26T16:12:48;22.27;;;10.00;;
70675;SDS011;59069;52.242;20.900;2022-10-26T16:17:44;23.30;;;11.10;;
70675;SDS011;59069;52.242;20.900;2022-10-26T16:20:11;24.35;;;12.15;;
70675;SDS011;59069;52.242;20.900;2022-10-26T16:22:39;23.63;;;12.20;;
70675;SDS011;59069;52.242;20.900;2022-10-26T16:25:10;25.63;;;11.20;;
70675;SDS011;59069;52.242;20.900;2022-10-26T16:27:36;21.67;;;11.03;;
70675;SDS011;59069;52.242;20.900;2022-10-26T16:30:01;23.53;;;10.67;;
70675;SDS011;59069;52.242;20.900;2022-10-26T16:32:27;20.67;;;10.95;;
70675;SDS011;59069;52.242;20.900;2022-10-26T16:34:52;27.30;;;12.10;;
70675;SDS011;59069;52.242;20.900;2022-10-26T16:37:17;24.80;;;11.60;;
70675;SDS011;59069;52.242;20.900;2022-10-26T16:39:43;28.23;;;11.90;;
70675;SDS011;59069;52.242;20.900;2022-10-26T16:42:08;29.23;;;12.35;;